Hayes, Louisiana
Current Conditions -  °F | °C
As of 6:00 AM on Monday 26 Jan 2015 (Local Time) from KCWF Reporting Station
Clear Clear  
Wind Chill: 39°   Ceiling: Unl
Heat Index: 45°   Visibility: 10mi
Dew Point: 32°   Wind: 12mph
Humidity: 61%   Direction: 320°NW
Pressure: 30.15"   Gusts: NA
Location:  30.11°N, 92.92°W
Report Text: KCWF 261200Z 32010KT 10SM SKC 07/00 A3015
Loading
Personal Weather Stations






























Interactive Weather Map New forecast layout! Learn more

10-Day Weather Forecast

Advertisements
Track Severe Weather on mobile